createdAt,value
2023-05-22T00:04:21.599Z,14.77
2023-05-22T00:09:26.529Z,14.73
2023-05-22T00:14:28.308Z,14.64
2023-05-22T00:19:30.589Z,14.56
2023-05-22T00:24:32.425Z,14.50
2023-05-22T00:29:34.656Z,14.44
2023-05-22T00:34:36.712Z,14.35
2023-05-22T00:39:38.899Z,14.31
2023-05-22T00:44:41.876Z,14.30
2023-05-22T00:49:44.266Z,14.29
2023-05-22T00:54:46.380Z,14.19
2023-05-22T00:59:48.952Z,14.09
2023-05-22T01:04:50.914Z,14.00
2023-05-22T01:09:53.145Z,13.95
2023-05-22T01:15:33.614Z,13.89
2023-05-22T01:20:41.245Z,13.82
2023-05-22T01:26:03.706Z,13.81
2023-05-22T01:31:08.211Z,13.81
2023-05-22T01:36:11.589Z,13.71
2023-05-22T01:41:14.158Z,13.69
2023-05-22T01:46:16.273Z,13.60
2023-05-22T01:51:36.778Z,13.51
2023-05-22T01:57:17.263Z,13.47
2023-05-22T02:02:21.395Z,13.41
2023-05-22T02:07:27.544Z,13.33
2023-05-22T02:12:31.511Z,13.26
2023-05-22T02:17:40.435Z,13.23
2023-05-22T02:22:46.066Z,13.18
2023-05-22T02:27:48.077Z,13.15
2023-05-22T02:32:50.201Z,13.07
2023-05-22T02:37:52.070Z,13.05
2023-05-22T02:42:53.844Z,13.09
2023-05-22T02:47:55.983Z,13.02
2023-05-22T02:52:57.880Z,12.98
2023-05-22T02:57:59.641Z,12.96
2023-05-22T03:03:01.698Z,12.93
2023-05-22T03:08:03.677Z,12.94
2023-05-22T03:13:05.614Z,12.97
2023-05-22T03:18:07.504Z,13.04
2023-05-22T03:23:13.146Z,13.09
2023-05-22T03:28:15.023Z,13.27
2023-05-22T03:33:16.947Z,13.65
2023-05-22T03:38:19.120Z,14.16
2023-05-22T03:43:21.117Z,14.22
2023-05-22T03:48:23.034Z,14.25
2023-05-22T03:53:26.930Z,14.37
2023-05-22T03:58:29.040Z,15.03
2023-05-22T04:03:30.936Z,15.05
2023-05-22T04:08:33.441Z,14.77
2023-05-22T04:13:35.501Z,15.58
2023-05-22T04:18:37.315Z,18.58
2023-05-22T04:23:39.156Z,20.34
2023-05-22T04:28:41.988Z,18.80
2023-05-22T04:33:44.622Z,17.88
2023-05-22T04:38:47.700Z,17.53
2023-05-22T04:43:49.595Z,17.49
2023-05-22T04:48:53.563Z,17.49
2023-05-22T04:53:56.129Z,17.64
2023-05-22T04:58:58.842Z,17.46
2023-05-22T05:04:00.929Z,17.40
2023-05-22T05:09:03.083Z,17.68
2023-05-22T05:14:05.038Z,18.23
2023-05-22T05:19:06.911Z,18.39
2023-05-22T05:24:09.046Z,18.61
2023-05-22T05:29:12.957Z,18.90
2023-05-22T05:34:25.216Z,19.19
2023-05-22T05:39:38.854Z,18.87
2023-05-22T05:44:42.994Z,19.39
2023-05-22T05:49:45.397Z,19.31
2023-05-22T05:54:49.480Z,19.91
2023-05-22T05:59:55.461Z,19.43
2023-05-22T06:05:17.697Z,20.21
2023-05-22T06:10:19.960Z,20.28
2023-05-22T06:15:33.402Z,20.36
2023-05-22T06:20:35.247Z,20.30
2023-05-22T06:25:37.585Z,21.02
2023-05-22T06:30:40.534Z,20.64
2023-05-22T06:35:47.279Z,20.84
2023-05-22T06:40:50.635Z,21.44
2023-05-22T06:45:56.873Z,21.34
2023-05-22T06:51:12.831Z,21.88
2023-05-22T06:56:16.444Z,21.77
2023-05-22T07:01:29.477Z,22.67
2023-05-22T07:06:42.489Z,23.42
2023-05-22T07:11:46.689Z,23.19
2023-05-22T07:16:50.545Z,23.30
2023-05-22T07:22:00.275Z,23.95
2023-05-22T07:27:04.463Z,23.49
2023-05-22T07:32:08.636Z,23.20
2023-05-22T07:37:13.274Z,23.90
2023-05-22T07:42:16.384Z,24.92
2023-05-22T07:47:24.763Z,25.49
2023-05-22T07:52:26.878Z,24.93
2023-05-22T07:57:29.944Z,24.90
2023-05-22T08:02:36.611Z,25.67
2023-05-22T08:07:38.589Z,25.98
2023-05-22T08:12:40.510Z,26.27
2023-05-22T08:17:42.316Z,26.30
2023-05-22T08:22:44.295Z,26.36
2023-05-22T08:27:46.458Z,26.62
2023-05-22T08:32:48.278Z,27.23
2023-05-22T08:37:50.132Z,27.60
2023-05-22T08:42:54.385Z,27.42
2023-05-22T08:47:58.977Z,27.95
2023-05-22T08:53:04.076Z,27.63
2023-05-22T08:58:06.322Z,27.82
2023-05-22T09:03:10.239Z,27.55
2023-05-22T09:08:19.710Z,27.99
2023-05-22T09:13:30.610Z,27.86
2023-05-22T09:18:32.495Z,28.11
2023-05-22T09:23:34.626Z,28.33
2023-05-22T09:28:37.175Z,28.56
2023-05-22T09:33:39.001Z,28.82
2023-05-22T09:38:41.413Z,28.42
2023-05-22T09:43:50.502Z,28.89
2023-05-22T09:48:53.274Z,29.18
2023-05-22T09:54:03.564Z,29.12
2023-05-22T09:59:09.449Z,29.41
2023-05-22T10:04:16.107Z,29.71
2023-05-22T10:09:21.508Z,29.96
2023-05-22T10:14:24.591Z,30.17
2023-05-22T10:19:29.104Z,30.23
2023-05-22T10:24:31.782Z,30.19
2023-05-22T10:29:44.962Z,30.58
2023-05-22T10:35:18.221Z,30.73
2023-05-22T10:40:29.161Z,30.85
2023-05-22T10:45:32.098Z,31.21
2023-05-22T10:50:35.313Z,31.67
2023-05-22T10:55:47.190Z,31.81
2023-05-22T11:00:50.672Z,32.43
2023-05-22T11:05:55.234Z,32.27
2023-05-22T11:11:00.671Z,31.93
2023-05-22T11:16:06.315Z,31.57
2023-05-22T11:21:12.262Z,31.97
2023-05-22T11:26:22.553Z,31.85
2023-05-22T11:31:24.632Z,31.70
2023-05-22T11:36:32.396Z,31.46
2023-05-22T11:41:34.431Z,31.24
2023-05-22T11:46:36.302Z,31.61
2023-05-22T11:51:40.415Z,31.93
2023-05-22T11:56:42.229Z,31.77
2023-05-22T12:01:43.986Z,32.22
2023-05-22T12:06:51.002Z,32.52
2023-05-22T12:11:56.936Z,32.57
2023-05-22T12:16:59.350Z,32.42
2023-05-22T12:22:04.395Z,32.63
2023-05-22T12:27:09.186Z,32.07
2023-05-22T12:32:12.540Z,32.11
2023-05-22T12:37:28.311Z,32.50
2023-05-22T12:42:30.312Z,32.12
2023-05-22T12:47:32.627Z,32.57
2023-05-22T12:52:35.970Z,32.22
2023-05-22T12:57:37.908Z,32.52
2023-05-22T13:02:39.901Z,32.64
2023-05-22T13:07:41.709Z,32.82
2023-05-22T13:12:44.881Z,32.07
2023-05-22T13:17:46.838Z,32.01
2023-05-22T13:22:51.265Z,32.00
2023-05-22T13:27:53.156Z,32.31
2023-05-22T13:32:55.579Z,32.16
2023-05-22T13:37:57.612Z,32.11
2023-05-22T13:42:59.524Z,32.75
2023-05-22T13:48:04.121Z,33.31
2023-05-22T13:53:06.003Z,33.24
2023-05-22T13:58:07.830Z,32.61
2023-05-22T14:03:20.395Z,31.49
2023-05-22T14:08:22.310Z,31.39
2023-05-22T14:13:24.166Z,31.98
2023-05-22T14:18:31.550Z,31.55
2023-05-22T14:23:33.348Z,31.85
2023-05-22T14:28:36.237Z,30.95
2023-05-22T14:33:40.412Z,32.00
2023-05-22T14:38:45.231Z,32.13
2023-05-22T14:43:47.762Z,31.45
2023-05-22T14:48:49.734Z,30.83
2023-05-22T14:53:51.549Z,31.67
2023-05-22T14:58:53.364Z,31.77
2023-05-22T15:03:55.166Z,31.35
2023-05-22T15:08:56.952Z,30.60
2023-05-22T15:14:01.439Z,31.37
2023-05-22T15:19:03.413Z,31.69
2023-05-22T15:24:05.537Z,31.24
2023-05-22T15:29:07.374Z,31.21
2023-05-22T15:34:18.420Z,30.71
2023-05-22T15:39:20.352Z,28.95
2023-05-22T15:44:22.162Z,30.32
2023-05-22T15:49:24.036Z,30.77
2023-05-22T15:54:25.905Z,31.08
2023-05-22T15:59:29.572Z,30.49
2023-05-22T16:04:31.478Z,31.02
2023-05-22T16:09:33.326Z,30.23
2023-05-22T16:14:35.130Z,30.48
2023-05-22T16:19:37.166Z,29.68
2023-05-22T16:24:39.159Z,29.26
2023-05-22T16:29:41.223Z,29.33
2023-05-22T16:34:43.039Z,30.07
2023-05-22T16:39:46.724Z,30.30
2023-05-22T16:44:48.490Z,30.12
2023-05-22T16:49:50.408Z,29.94
2023-05-22T16:54:53.353Z,29.70
2023-05-22T16:59:57.159Z,29.58
2023-05-22T17:04:59.685Z,29.29
2023-05-22T17:10:03.142Z,29.09
2023-05-22T17:15:08.584Z,29.15
2023-05-22T17:20:12.814Z,29.53
2023-05-22T17:25:23.175Z,30.66
2023-05-22T17:30:27.453Z,31.10
2023-05-22T17:35:29.995Z,30.34
2023-05-22T17:40:43.892Z,29.13
2023-05-22T17:45:50.018Z,28.23
2023-05-22T17:50:52.536Z,27.56
2023-05-22T17:55:54.309Z,27.08
2023-05-22T18:00:56.320Z,26.54
2023-05-22T18:05:58.641Z,26.12
2023-05-22T18:11:00.602Z,25.70
2023-05-22T18:16:03.601Z,25.34
2023-05-22T18:21:05.637Z,24.95
2023-05-22T18:26:07.431Z,24.60
2023-05-22T18:31:11.594Z,24.03
2023-05-22T18:36:13.601Z,23.68
2023-05-22T18:41:15.391Z,23.35
2023-05-22T18:46:19.100Z,23.04
2023-05-22T18:51:20.936Z,22.82
2023-05-22T18:56:22.898Z,22.56
2023-05-22T19:01:24.714Z,22.40
2023-05-22T19:06:26.572Z,22.27
2023-05-22T19:11:28.401Z,22.15
2023-05-22T19:16:30.301Z,22.02
2023-05-22T19:21:32.608Z,21.85
2023-05-22T19:26:37.269Z,21.68
2023-05-22T19:31:39.172Z,21.50
2023-05-22T19:36:40.993Z,21.33
2023-05-22T19:41:43.359Z,21.12
2023-05-22T19:46:45.211Z,20.95
2023-05-22T19:51:47.170Z,20.80
2023-05-22T19:56:48.936Z,20.68
2023-05-22T20:01:53.411Z,20.60
2023-05-22T20:06:58.681Z,20.47
2023-05-22T20:12:00.621Z,20.39
2023-05-22T20:17:03.019Z,20.26
2023-05-22T20:22:07.987Z,20.13
2023-05-22T20:27:10.955Z,20.04
2023-05-22T20:32:12.831Z,19.84
2023-05-22T20:37:14.692Z,19.51
2023-05-22T20:42:18.044Z,19.33
2023-05-22T20:47:19.839Z,19.23
2023-05-22T20:52:22.370Z,19.13
2023-05-22T20:57:25.185Z,19.05
2023-05-22T21:02:27.067Z,18.95
2023-05-22T21:07:29.137Z,18.77
2023-05-22T21:12:31.056Z,18.72
2023-05-22T21:17:32.895Z,18.60
2023-05-22T21:22:34.751Z,18.46
2023-05-22T21:27:36.610Z,18.40
2023-05-22T21:32:38.568Z,18.33
2023-05-22T21:37:40.725Z,18.28
2023-05-22T21:42:47.004Z,18.24
2023-05-22T21:47:49.272Z,18.13
2023-05-22T21:52:52.224Z,17.97
2023-05-22T21:57:55.700Z,17.87
2023-05-22T22:02:57.651Z,17.70
2023-05-22T22:07:59.553Z,17.61
2023-05-22T22:13:02.612Z,17.49
2023-05-22T22:18:05.221Z,17.36
2023-05-22T22:23:07.595Z,17.26
2023-05-22T22:28:09.521Z,17.13
2023-05-22T22:33:11.997Z,17.04
2023-05-22T22:38:13.956Z,16.99
2023-05-22T22:43:15.801Z,16.88
2023-05-22T22:48:22.374Z,16.82
2023-05-22T22:53:24.387Z,16.70
2023-05-22T22:58:26.357Z,16.58
2023-05-22T23:03:28.208Z,16.45
2023-05-22T23:08:30.122Z,16.34
2023-05-22T23:13:32.165Z,16.24
2023-05-22T23:18:34.005Z,16.14
2023-05-22T23:23:35.943Z,16.16
2023-05-22T23:28:37.756Z,16.08
2023-05-22T23:33:42.745Z,16.05
2023-05-22T23:38:46.461Z,15.97
2023-05-22T23:43:48.226Z,15.89
2023-05-22T23:48:50.099Z,15.76
2023-05-22T23:53:54.522Z,15.67
2023-05-22T23:58:56.668Z,15.58
